Stefan K — PBER — position and weather

sailwx.info

Track history (hours):
 
Tides and Currents Weather Stations Pressure Air Temp Water Temp Dewpoint Dewpoint Depression Visibility Wind Speed Wind Dir Waves Ship Positions

Stefan K

Last reported at 2018-Jun-17 06:27 UTC. Time now 2018-Jun-18 09:19 UTC.
Position N 43°36' W 005°58'.

Length 88 m; draft 3.5 m.

Type: Cargo ship. MMSI: 246062000.

Date/timePositionNaut miles runAvg speedWind from/ knotsBaromVisibWave heightAir tempDewpointWater temp
2018-Jun-17 06:27N 43°36' W 005°58'3 6.8
2018-Jun-17 05:57N 43°39' W 005°59'4 8.9
2018-Jun-17 05:29N 43°43' W 006°02'4 7.6
2018-Jun-17 04:54N 43°47' W 006°06'2 5.3
2018-Jun-17 04:25N 43°45' W 006°04'3 5.5
2018-Jun-17 03:56N 43°43' W 006°01'2 4.9
2018-Jun-17 03:30N 43°41' W 005°59'3 6.7
2018-Jun-17 02:59N 43°45' W 005°59'4 6.8
2018-Jun-17 02:28N 43°48' W 005°60'  
2018-Jun-14 09:54N 52°16' W 007°02'0 0.0
2018-Jun-14 09:30N 52°16' W 007°02'0 0.0
2018-Jun-14 09:00N 52°16' W 007°02'0 0.0
2018-Jun-14 08:30N 52°16' W 007°02'0 0.0
2018-Jun-14 07:54N 52°16' W 007°02'0 0.0
2018-Jun-14 07:30N 52°16' W 007°02'0 0.0
2018-Jun-14 07:00N 52°16' W 007°02'0 0.0
2018-Jun-14 06:30N 52°16' W 007°02'0 0.0
2018-Jun-14 06:00N 52°16' W 007°02'0 0.0
2018-Jun-14 05:30N 52°16' W 007°02'0 0.0
2018-Jun-14 05:00N 52°16' W 007°02'0 0.0
2018-Jun-14 04:30N 52°16' W 007°02'0 0.0
2018-Jun-14 04:00N 52°16' W 007°02'0 0.0
2018-Jun-14 03:30N 52°16' W 007°02'0 0.0
2018-Jun-14 03:00N 52°16' W 007°02'0 0.0
2018-Jun-14 02:30N 52°16' W 007°02'0 0.0
2018-Jun-14 02:00N 52°16' W 007°02'0 0.0
2018-Jun-14 01:30N 52°16' W 007°02'0 0.0
2018-Jun-14 01:00N 52°16' W 007°02'0 0.0
2018-Jun-14 00:30N 52°16' W 007°02'0 0.0
2018-Jun-14 00:00N 52°16' W 007°02'0 0.0
2018-Jun-13 23:30N 52°16' W 007°02'0 0.0
2018-Jun-13 22:48N 52°16' W 007°02'0 0.0
2018-Jun-13 22:27N 52°16' W 007°02'0 0.0
2018-Jun-13 22:00N 52°16' W 007°02'0 0.0
2018-Jun-13 21:30N 52°16' W 007°02'0 0.0
2018-Jun-13 21:00N 52°16' W 007°02'0 0.0
2018-Jun-13 20:30N 52°16' W 007°02'0 0.0
2018-Jun-13 20:00N 52°16' W 007°02'0 0.0
2018-Jun-13 19:30N 52°16' W 007°02'2 3.2
2018-Jun-13 19:00N 52°17' W 006°59'3 6.5
2018-Jun-13 18:30N 52°14' W 006°57'4 7.6
2018-Jun-13 18:00N 52°10' W 006°57'1 1.6
2018-Jun-13 17:28N 52°09' W 006°58'0 0.0
2018-Jun-13 16:58N 52°09' W 006°58'0 0.0
2018-Jun-13 16:28N 52°09' W 006°58'0 0.0
2018-Jun-13 15:58N 52°09' W 006°58'0 0.0
2018-Jun-13 15:28N 52°09' W 006°58'0 0.0
2018-Jun-13 14:58N 52°09' W 006°58'0 0.0
2018-Jun-13 14:28N 52°09' W 006°58'0 0.0
2018-Jun-13 13:58N 52°09' W 006°58'0 0.0
2018-Jun-13 13:28N 52°09' W 006°58'0 0.0
2018-Jun-13 12:58N 52°09' W 006°58'0 0.0
2018-Jun-13 12:28N 52°09' W 006°58'0 0.0
2018-Jun-13 11:52N 52°09' W 006°58'0 0.3
2018-Jun-13 11:30N 52°09' W 006°58'3 5.4
2018-Jun-13 11:00N 52°07' W 006°59'5 9.1
2018-Jun-13 10:30N 52°02' W 006°59'5 9.1
2018-Jun-13 10:00N 51°58' W 007°01'5 9.3
2018-Jun-13 09:30N 51°53' W 007°02'  
2018-Jun-09 17:06N 39°20' W 009°50'1 8.0
2018-Jun-09 16:58N 39°19' W 009°50'4 8.0
2018-Jun-09 16:30N 39°15' W 009°49'4 7.9
2018-Jun-09 16:00N 39°11' W 009°50'8 8.2
2018-Jun-09 14:59N 39°03' W 009°50'4 8.3
2018-Jun-09 14:30N 38°59' W 009°50'4 8.3
2018-Jun-09 14:00N 38°54' W 009°50'4 8.3
2018-Jun-09 13:30N 38°50' W 009°50'4 8.3
2018-Jun-09 13:00N 38°46' W 009°50'4 8.3
2018-Jun-09 12:30N 38°42' W 009°50'4 8.4
2018-Jun-09 12:00N 38°38' W 009°49'4 8.4
2018-Jun-09 11:30N 38°34' W 009°47'4 8.6
2018-Jun-09 11:00N 38°30' W 009°46'4 8.6
2018-Jun-09 10:30N 38°25' W 009°45'4 8.5
2018-Jun-09 10:00N 38°21' W 009°43'5 8.5
2018-Jun-09 09:28N 38°17' W 009°42'4 8.7
2018-Jun-09 08:58N 38°13' W 009°41'4 8.6
2018-Jun-09 08:30N 38°09' W 009°40'4 8.6
2018-Jun-09 08:00N 38°05' W 009°38'4 8.5
2018-Jun-09 07:30N 38°00' W 009°37'4 8.2
2018-Jun-09 07:00N 37°56' W 009°36'4 8.9
2018-Jun-09 06:30N 37°52' W 009°35'4 8.7
2018-Jun-09 06:00N 37°48' W 009°34'6 8.5
2018-Jun-09 05:19N 37°42' W 009°32'3 8.6
2018-Jun-09 05:00N 37°40' W 009°31'211 7.7
2018-Jun-08 01:32N 35°58' W 005°40'0 6.4
2018-Jun-08 01:30N 35°58' W 005°40'3 6.4
2018-Jun-08 01:00N 35°58' W 005°36'3 5.8
2018-Jun-08 00:30N 35°59' W 005°33'3 5.6
2018-Jun-08 00:00N 35°60' W 005°29'3 5.7
2018-Jun-07 23:30N 36°01' W 005°26'3 5.8
2018-Jun-07 23:00N 36°01' W 005°22'3 5.8
2018-Jun-07 22:30N 36°02' W 005°19'3 5.7
2018-Jun-07 22:00N 36°04' W 005°16'3 6.3
2018-Jun-07 21:30N 36°06' W 005°13'3 6.5
2018-Jun-07 20:59N 36°07' W 005°09'  
Track history (hours):
 
Tides and Currents Weather Stations Pressure Air Temp Water Temp Dewpoint Dewpoint Depression Visibility Wind Speed Wind Dir Waves Ship Positions

Stefan K

Last reported at 2018-Jun-17 06:27 UTC. Time now 2018-Jun-18 09:19 UTC.
Position N 43°36' W 005°58'.

Length 88 m; draft 3.5 m.

Type: Cargo ship. MMSI: 246062000.

Date/timePositionNaut miles runAvg speedWind from/ knotsBaromVisibWave heightAir tempDewpointWater temp
2018-Jun-17 06:27N 43°36' W 005°58'3 6.8
2018-Jun-17 05:57N 43°39' W 005°59'4 8.9
2018-Jun-17 05:29N 43°43' W 006°02'4 7.6
2018-Jun-17 04:54N 43°47' W 006°06'2 5.3
2018-Jun-17 04:25N 43°45' W 006°04'3 5.5
2018-Jun-17 03:56N 43°43' W 006°01'2 4.9
2018-Jun-17 03:30N 43°41' W 005°59'3 6.7
2018-Jun-17 02:59N 43°45' W 005°59'4 6.8
2018-Jun-17 02:28N 43°48' W 005°60'  
2018-Jun-14 09:54N 52°16' W 007°02'0 0.0
2018-Jun-14 09:30N 52°16' W 007°02'0 0.0
2018-Jun-14 09:00N 52°16' W 007°02'0 0.0
2018-Jun-14 08:30N 52°16' W 007°02'0 0.0
2018-Jun-14 07:54N 52°16' W 007°02'0 0.0
2018-Jun-14 07:30N 52°16' W 007°02'0 0.0
2018-Jun-14 07:00N 52°16' W 007°02'0 0.0
2018-Jun-14 06:30N 52°16' W 007°02'0 0.0
2018-Jun-14 06:00N 52°16' W 007°02'0 0.0
2018-Jun-14 05:30N 52°16' W 007°02'0 0.0
2018-Jun-14 05:00N 52°16' W 007°02'0 0.0
2018-Jun-14 04:30N 52°16' W 007°02'0 0.0
2018-Jun-14 04:00N 52°16' W 007°02'0 0.0
2018-Jun-14 03:30N 52°16' W 007°02'0 0.0
2018-Jun-14 03:00N 52°16' W 007°02'0 0.0
2018-Jun-14 02:30N 52°16' W 007°02'0 0.0
2018-Jun-14 02:00N 52°16' W 007°02'0 0.0
2018-Jun-14 01:30N 52°16' W 007°02'0 0.0
2018-Jun-14 01:00N 52°16' W 007°02'0 0.0
2018-Jun-14 00:30N 52°16' W 007°02'0 0.0
2018-Jun-14 00:00N 52°16' W 007°02'0 0.0
2018-Jun-13 23:30N 52°16' W 007°02'0 0.0
2018-Jun-13 22:48N 52°16' W 007°02'0 0.0
2018-Jun-13 22:27N 52°16' W 007°02'0 0.0
2018-Jun-13 22:00N 52°16' W 007°02'0 0.0
2018-Jun-13 21:30N 52°16' W 007°02'0 0.0
2018-Jun-13 21:00N 52°16' W 007°02'0 0.0
2018-Jun-13 20:30N 52°16' W 007°02'0 0.0
2018-Jun-13 20:00N 52°16' W 007°02'0 0.0
2018-Jun-13 19:30N 52°16' W 007°02'2 3.2
2018-Jun-13 19:00N 52°17' W 006°59'3 6.5
2018-Jun-13 18:30N 52°14' W 006°57'4 7.6
2018-Jun-13 18:00N 52°10' W 006°57'1 1.6
2018-Jun-13 17:28N 52°09' W 006°58'0 0.0
2018-Jun-13 16:58N 52°09' W 006°58'0 0.0
2018-Jun-13 16:28N 52°09' W 006°58'0 0.0
2018-Jun-13 15:58N 52°09' W 006°58'0 0.0
2018-Jun-13 15:28N 52°09' W 006°58'0 0.0
2018-Jun-13 14:58N 52°09' W 006°58'0 0.0
2018-Jun-13 14:28N 52°09' W 006°58'0 0.0
2018-Jun-13 13:58N 52°09' W 006°58'0 0.0
2018-Jun-13 13:28N 52°09' W 006°58'0 0.0
2018-Jun-13 12:58N 52°09' W 006°58'0 0.0
2018-Jun-13 12:28N 52°09' W 006°58'0 0.0
2018-Jun-13 11:52N 52°09' W 006°58'0 0.3
2018-Jun-13 11:30N 52°09' W 006°58'3 5.4
2018-Jun-13 11:00N 52°07' W 006°59'5 9.1
2018-Jun-13 10:30N 52°02' W 006°59'5 9.1
2018-Jun-13 10:00N 51°58' W 007°01'5 9.3
2018-Jun-13 09:30N 51°53' W 007°02'  
2018-Jun-09 17:06N 39°20' W 009°50'1 8.0
2018-Jun-09 16:58N 39°19' W 009°50'4 8.0
2018-Jun-09 16:30N 39°15' W 009°49'4 7.9
2018-Jun-09 16:00N 39°11' W 009°50'8 8.2
2018-Jun-09 14:59N 39°03' W 009°50'4 8.3
2018-Jun-09 14:30N 38°59' W 009°50'4 8.3
2018-Jun-09 14:00N 38°54' W 009°50'4 8.3
2018-Jun-09 13:30N 38°50' W 009°50'4 8.3
2018-Jun-09 13:00N 38°46' W 009°50'4 8.3
2018-Jun-09 12:30N 38°42' W 009°50'4 8.4
2018-Jun-09 12:00N 38°38' W 009°49'4 8.4
2018-Jun-09 11:30N 38°34' W 009°47'4 8.6
2018-Jun-09 11:00N 38°30' W 009°46'4 8.6
2018-Jun-09 10:30N 38°25' W 009°45'4 8.5
2018-Jun-09 10:00N 38°21' W 009°43'5 8.5
2018-Jun-09 09:28N 38°17' W 009°42'4 8.7
2018-Jun-09 08:58N 38°13' W 009°41'4 8.6
2018-Jun-09 08:30N 38°09' W 009°40'4 8.6
2018-Jun-09 08:00N 38°05' W 009°38'4 8.5
2018-Jun-09 07:30N 38°00' W 009°37'4 8.2
2018-Jun-09 07:00N 37°56' W 009°36'4 8.9
2018-Jun-09 06:30N 37°52' W 009°35'4 8.7
2018-Jun-09 06:00N 37°48' W 009°34'6 8.5
2018-Jun-09 05:19N 37°42' W 009°32'3 8.6
2018-Jun-09 05:00N 37°40' W 009°31'211 7.7
2018-Jun-08 01:32N 35°58' W 005°40'0 6.4
2018-Jun-08 01:30N 35°58' W 005°40'3 6.4
2018-Jun-08 01:00N 35°58' W 005°36'3 5.8
2018-Jun-08 00:30N 35°59' W 005°33'3 5.6
2018-Jun-08 00:00N 35°60' W 005°29'3 5.7
2018-Jun-07 23:30N 36°01' W 005°26'3 5.8
2018-Jun-07 23:00N 36°01' W 005°22'3 5.8
2018-Jun-07 22:30N 36°02' W 005°19'3 5.7
2018-Jun-07 22:00N 36°04' W 005°16'3 6.3
2018-Jun-07 21:30N 36°06' W 005°13'3 6.5
2018-Jun-07 20:59N 36°07' W 005°09'  

Dump ship's entire track history